Terminal Aerodrome Forecast
Issued by NWS Charleston, WV

Home | Current Version | Previous Version | Text Only | Print | Product List | Glossary On
Versions: 1 2 3 4 5 6 7 8 9 10 11 12 13 14 15 16 17 18 19 20 21
000
FTUS41 KRLX 240500
TAFBKW
TAF
KBKW 240538Z 2406/2506 16013G20KT P6SM SCT015 BKN035
     FM240800 19012G22KT P6SM SCT015
     FM241600 19017G29KT P6SM SCT090
     FM241900 22019G37KT P6SM SCT150
     FM242300 24014G26KT P6SM SCT150=

USA.gov is the U.S. government's official web portal to all federal, state and local government web resources and services.